Accueil
METAR-TAF:

METAR-TAF

Aéroports :

Lagos, Nigeria

Aéroport international Murtala-Muhammed

latitude: 06-35N, longitude: 003-20E, altitude: 40 m

Observation

Le bulletin a été fait il y a 4 heures et 11 minutes, à 01:00 UTC
Vent 12 kt de est
Température 25°C
Humidité 94%
Pression 1015 hPa
Visibilité: 8000 m
Quelques nuages à une hauteur de 900 ft
Quelques nuages à une hauteur de 2000 ft, Cumulonimbus.
orage

METAR: DNMM 260100Z 09012KT 8000 TS FEW009 FEW020CB 25/24 Q1015 TEMPO -TSRA

Heure: 06:11 (05:11 UTC)


TAF: absent

Observations et prévisions météorologiques de plus de 4000 aéroports (messages METAR et TAF).

Les stations disponibles sont représentées par des disques jaunes et rouges sur la carte.

Passer la souris dessus pour voir le nom de la station.

Cliquer dessus pour voir les observations et prévisions météorologiques.

Pour changer de carte: cliquez sur les boutons verts avec une croix noire pour zoomer, sur le bouton vert avec un tiret pour effectuer un zoom arrière, ou sur les flèches vertes pour les cartes adjacentes.


METAR-TAF: